Time;durP1;ratioP1;P1;durP2;ratioP2;P2;SDS_P1;SDS_P2;PMS_P1;PMS_P2;Temp;Humidity;BMP_temperature;BMP_pressure;BME280_temperature;BME280_humidity;BME280_pressure;Samples;Min_cycle;Max_cycle;Signal;HPM_P1;HPM_P2
2022/09/28 00:01:54;;;;;;;1.47;0.57;;;9.30;99.90;;;;;;5031145;28;20211;-75
2022/09/28 00:04:20;;;;;;;1.00;0.60;;;9.30;99.90;;;;;;5048684;28;20432;-75
2022/09/28 00:06:46;;;;;;;2.70;0.60;;;9.40;99.90;;;;;;5048725;28;20215;-75
2022/09/28 00:09:12;;;;;;;1.70;0.70;;;9.40;99.90;;;;;;5030762;28;20664;-75
2022/09/28 00:11:38;;;;;;;2.40;0.60;;;9.40;99.90;;;;;;5049044;28;20251;-74
2022/09/28 00:14:06;;;;;;;3.13;0.60;;;9.40;99.90;;;;;;5049021;28;20451;-76
2022/09/28 00:16:35;;;;;;;1.20;0.80;;;9.40;99.90;;;;;;5047523;28;20639;-76
2022/09/28 00:19:01;;;;;;;1.70;0.73;;;9.40;99.90;;;;;;5049200;28;20442;-76
2022/09/28 00:21:30;;;;;;;5.90;0.70;;;9.50;99.90;;;;;;5050765;28;20419;-75
2022/09/28 00:24:14;;;;;;;1.80;0.70;;;9.40;99.90;;;;;;5049061;28;20440;-74
2022/09/28 00:26:56;;;;;;;2.10;0.80;;;9.40;99.90;;;;;;5047805;28;20466;-76
2022/09/28 00:29:28;;;;;;;1.20;0.70;;;9.50;99.90;;;;;;5048823;28;20437;-76
2022/09/28 00:31:58;;;;;;;1.90;0.60;;;9.50;99.90;;;;;;5048854;28;20429;-75
2022/09/28 00:34:25;;;;;;;1.70;0.80;;;9.50;99.90;;;;;;5047393;28;20496;-76
2022/09/28 00:36:51;;;;;;;0.90;0.50;;;9.50;99.90;;;;;;5049366;28;20465;-76
2022/09/28 00:39:17;;;;;;;1.00;0.60;;;9.50;99.90;;;;;;5051988;28;20457;-76
2022/09/28 00:41:43;;;;;;;1.03;0.50;;;9.60;99.90;;;;;;5034134;28;21143;-76
2022/09/28 00:44:21;;;;;;;0.80;0.43;;;9.50;99.90;;;;;;5050639;28;20303;-74
2022/09/28 00:46:49;;;;;;;1.57;0.50;;;9.60;99.90;;;;;;5051758;28;20456;-75
2022/09/28 00:49:17;;;;;;;1.33;0.50;;;9.60;99.90;;;;;;5051598;28;20469;-75
2022/09/28 00:51:44;;;;;;;2.67;0.57;;;9.60;99.90;;;;;;5052043;28;20777;-75
2022/09/28 00:54:11;;;;;;;5.33;0.80;;;9.60;99.90;;;;;;5051539;28;20496;-75
2022/09/28 00:56:41;;;;;;;3.53;0.83;;;9.60;99.90;;;;;;5051438;28;20587;-75
2022/09/28 00:59:07;;;;;;;4.03;0.70;;;9.60;99.90;;;;;;5051604;28;20419;-76
2022/09/28 01:01:33;;;;;;;1.90;0.60;;;9.60;99.90;;;;;;5051647;28;20943;-76
2022/09/28 01:04:01;;;;;;;2.50;0.70;;;9.60;99.90;;;;;;5051537;28;20434;-76
2022/09/28 01:06:32;;;;;;;2.97;0.57;;;9.60;99.90;;;;;;5051495;28;20934;-76
2022/09/28 01:09:01;;;;;;;5.27;1.03;;;9.60;99.90;;;;;;5050085;28;20436;-76
2022/09/28 01:11:30;;;;;;;2.60;0.70;;;9.70;99.90;;;;;;5049865;28;20431;-76
2022/09/28 01:13:56;;;;;;;1.00;0.50;;;9.60;99.90;;;;;;5049822;28;21273;-75
2022/09/28 01:16:42;;;;;;;1.20;0.63;;;9.60;99.90;;;;;;5049649;28;20565;-76
2022/09/28 01:19:32;;;;;;;2.87;0.80;;;9.50;99.90;;;;;;5050986;28;20452;-75
2022/09/28 01:22:07;;;;;;;3.90;0.50;;;9.50;99.90;;;;;;5050914;28;20459;-75
2022/09/28 01:24:51;;;;;;;4.77;0.70;;;9.60;99.90;;;;;;5050929;28;20509;-76
2022/09/28 01:27:35;;;;;;;1.63;0.73;;;9.60;99.90;;;;;;5051416;28;20411;-76
2022/09/28 01:30:07;;;;;;;4.90;1.03;;;9.70;99.90;;;;;;5052620;28;20418;-76
2022/09/28 01:32:46;;;;;;;4.20;0.73;;;9.70;99.90;;;;;;5053402;28;20397;-76
2022/09/28 01:35:14;;;;;;;3.43;0.80;;;9.70;99.90;;;;;;5051451;28;20480;-76
2022/09/28 01:38:09;;;;;;;3.83;1.10;;;9.60;99.90;;;;;;5052707;28;20424;-75
2022/09/28 01:40:36;;;;;;;2.53;0.60;;;9.60;99.90;;;;;;5043384;28;20506;-76
2022/09/28 01:43:07;;;;;;;5.70;0.83;;;9.60;99.90;;;;;;5051450;28;20947;-76
2022/09/28 01:45:39;;;;;;;2.00;0.87;;;9.60;99.90;;;;;;5051186;28;20427;-76
2022/09/28 01:48:07;;;;;;;2.40;0.60;;;9.60;99.90;;;;;;5050394;28;20497;-75
2022/09/28 01:50:38;;;;;;;6.60;0.80;;;9.70;99.90;;;;;;5050411;28;20470;-75
2022/09/28 01:53:34;;;;;;;4.73;1.13;;;9.80;99.90;;;;;;5050567;28;20606;-75
2022/09/28 01:56:06;;;;;;;2.07;0.70;;;9.70;99.90;;;;;;5050073;28;20493;-75
2022/09/28 01:58:49;;;;;;;5.20;1.00;;;9.70;99.90;;;;;;5050268;28;20422;-75
2022/09/28 02:01:34;;;;;;;2.47;0.60;;;9.70;99.90;;;;;;5050316;28;20498;-74
2022/09/28 02:04:11;;;;;;;3.93;0.80;;;9.80;99.90;;;;;;5050215;28;20444;-76
2022/09/28 02:06:43;;;;;;;1.00;0.60;;;9.80;99.90;;;;;;5049960;28;20458;-76
2022/09/28 02:09:19;;;;;;;7.97;2.13;;;9.80;99.90;;;;;;5050214;28;20428;-75
2022/09/28 02:11:52;;;;;;;2.30;0.90;;;9.90;99.90;;;;;;5048873;28;20484;-74
2022/09/28 02:14:18;;;;;;;1.63;0.63;;;9.90;99.90;;;;;;5050047;28;20809;-75
2022/09/28 02:16:47;;;;;;;1.97;0.70;;;9.80;99.90;;;;;;5050134;28;20571;-75
2022/09/28 02:19:22;;;;;;;2.70;0.90;;;9.80;99.90;;;;;;5049099;28;20462;-76
2022/09/28 02:22:15;;;;;;;7.13;1.00;;;9.80;99.90;;;;;;5049368;28;20407;-75
2022/09/28 02:24:44;;;;;;;3.07;0.90;;;9.80;99.90;;;;;;5050576;28;20459;-75
2022/09/28 02:27:38;;;;;;;0.80;0.73;;;9.90;99.90;;;;;;5050555;28;20448;-75
2022/09/28 02:30:06;;;;;;;3.33;1.43;;;10.00;99.90;;;;;;5042784;28;20482;-75
2022/09/28 02:32:34;;;;;;;1.13;0.60;;;9.90;99.90;;;;;;5050423;28;20910;-75
2022/09/28 02:35:00;;;;;;;3.70;1.30;;;9.90;99.90;;;;;;5050014;28;20474;-75
2022/09/28 02:37:27;;;;;;;4.70;1.00;;;10.00;99.90;;;;;;5048659;28;20428;-75
2022/09/28 02:39:52;;;;;;;2.73;1.30;;;10.00;99.90;;;;;;5032048;28;20465;-75
2022/09/28 02:42:32;;;;;;;5.13;0.70;;;10.00;99.90;;;;;;5049884;28;20986;-75
2022/09/28 02:45:18;;;;;;;3.17;0.70;;;10.00;99.90;;;;;;5049576;28;20184;-75
2022/09/28 02:47:50;;;;;;;2.57;0.90;;;10.00;99.90;;;;;;5047853;28;20428;-75
2022/09/28 02:50:32;;;;;;;2.60;0.77;;;10.00;99.90;;;;;;5049264;28;20925;-76
2022/09/28 02:53:45;;;;;;;4.47;0.93;;;10.00;99.90;;;;;;5049216;28;20448;-76
2022/09/28 02:56:32;;;;;;;2.57;0.60;;;10.00;99.90;;;;;;5039618;28;20488;-75
2022/09/28 02:59:10;;;;;;;6.43;1.17;;;10.00;99.90;;;;;;5049445;28;20916;-76
2022/09/28 03:01:38;;;;;;;6.33;1.07;;;10.10;99.90;;;;;;5049040;28;20481;-76
2022/09/28 03:04:34;;;;;;;3.23;0.83;;;10.10;99.90;;;;;;5049284;28;20776;-75
2022/09/28 03:07:05;;;;;;;3.23;0.77;;;10.10;99.90;;;;;;5049141;28;20437;-75
2022/09/28 03:09:52;;;;;;;2.17;0.70;;;10.10;99.90;;;;;;5048515;28;20479;-74
2022/09/28 03:12:19;;;;;;;2.00;0.53;;;10.10;99.90;;;;;;5049065;28;20440;-76
2022/09/28 03:14:45;;;;;;;0.93;0.53;;;10.10;99.90;;;;;;5048867;28;20455;-75
2022/09/28 03:17:10;;;;;;;2.60;0.50;;;10.10;99.90;;;;;;5047411;28;20410;-74
2022/09/28 03:19:36;;;;;;;1.10;0.73;;;10.10;99.90;;;;;;5048671;28;20191;-75
2022/09/28 03:22:02;;;;;;;1.80;0.80;;;10.10;99.90;;;;;;5047360;28;20182;-75
2022/09/28 03:24:27;;;;;;;1.70;0.63;;;10.10;99.90;;;;;;5048630;28;20268;-76
2022/09/28 03:26:53;;;;;;;2.10;0.50;;;10.10;99.90;;;;;;5048706;28;20429;-75
2022/09/28 03:29:19;;;;;;;5.83;0.90;;;10.00;99.90;;;;;;5047406;28;20220;-75
2022/09/28 03:31:46;;;;;;;1.80;0.60;;;10.00;99.90;;;;;;5049140;28;20183;-75
2022/09/28 03:34:12;;;;;;;1.60;0.60;;;10.00;99.90;;;;;;5048435;28;20944;-76
2022/09/28 03:36:37;;;;;;;1.63;0.60;;;10.00;99.90;;;;;;5048519;28;20477;-75
2022/09/28 03:39:03;;;;;;;1.57;0.70;;;10.00;99.90;;;;;;5047037;28;20186;-75
2022/09/28 03:41:28;;;;;;;1.77;0.60;;;10.00;99.90;;;;;;5048541;28;20187;-75
2022/09/28 03:43:54;;;;;;;1.53;0.53;;;9.90;99.90;;;;;;5048471;28;20200;-76
2022/09/28 03:46:20;;;;;;;0.60;0.40;;;9.90;99.90;;;;;;5048500;28;20273;-76
2022/09/28 03:48:46;;;;;;;1.10;0.70;;;9.80;99.90;;;;;;5048448;28;20197;-76
2022/09/28 03:51:12;;;;;;;5.53;0.60;;;9.80;99.90;;;;;;5048547;28;20933;-76
2022/09/28 03:53:38;;;;;;;1.53;0.60;;;9.80;99.90;;;;;;5048453;28;20443;-76
2022/09/28 03:56:05;;;;;;;2.00;0.60;;;9.80;99.90;;;;;;5046814;28;20517;-75
2022/09/28 03:58:31;;;;;;;1.57;0.47;;;9.80;99.90;;;;;;5048305;28;20465;-75
2022/09/28 04:01:05;;;;;;;1.17;0.50;;;9.80;99.90;;;;;;5046790;28;20828;-75
2022/09/28 04:03:31;;;;;;;0.93;0.50;;;9.80;99.90;;;;;;5048306;28;20216;-75
2022/09/28 04:05:57;;;;;;;0.80;0.50;;;9.90;99.90;;;;;;5030441;28;20432;-75
2022/09/28 04:08:23;;;;;;;1.57;0.60;;;9.80;99.90;;;;;;5048262;28;20873;-75
2022/09/28 04:10:54;;;;;;;0.70;0.53;;;9.80;99.90;;;;;;5048532;28;20414;-75
2022/09/28 04:13:19;;;;;;;1.07;0.60;;;9.80;99.90;;;;;;5051940;28;20442;-75
2022/09/28 04:15:52;;;;;;;2.00;0.70;;;9.70;99.90;;;;;;5052144;28;20464;-75
2022/09/28 04:18:18;;;;;;;1.47;0.60;;;9.80;99.90;;;;;;5050912;28;20198;-75
2022/09/28 04:20:46;;;;;;;2.13;0.60;;;9.80;99.90;;;;;;5052199;28;20413;-75
2022/09/28 04:23:12;;;;;;;1.53;0.60;;;9.80;99.90;;;;;;5052122;28;20202;-76
2022/09/28 04:25:38;;;;;;;1.00;0.60;;;9.80;99.90;;;;;;5051915;28;20431;-75
2022/09/28 04:30:48;;;;;;;1.37;0.50;;;9.80;99.90;;;;;;5052019;28;20203;-76
2022/09/28 04:33:14;;;;;;;0.97;0.50;;;9.70;99.90;;;;;;5052055;28;20432;-76
2022/09/28 04:35:40;;;;;;;0.77;0.50;;;9.70;99.90;;;;;;5034011;28;20474;-75
2022/09/28 04:38:05;;;;;;;7.60;0.77;;;9.70;99.90;;;;;;5051768;28;20183;-76
2022/09/28 04:40:31;;;;;;;1.63;0.60;;;9.80;99.90;;;;;;5050669;28;20182;-75
2022/09/28 04:42:56;;;;;;;2.60;0.60;;;9.70;99.90;;;;;;5052082;28;20241;-76
2022/09/28 04:45:25;;;;;;;0.80;0.60;;;9.70;99.90;;;;;;5050874;28;20272;-76
2022/09/28 04:47:50;;;;;;;4.80;0.80;;;9.70;99.90;;;;;;5052219;28;20270;-75
2022/09/28 04:50:16;;;;;;;6.43;0.57;;;9.60;99.90;;;;;;5052264;28;20467;-75
2022/09/28 04:52:42;;;;;;;1.93;0.50;;;9.60;99.90;;;;;;5052246;28;20278;-74
2022/09/28 04:55:11;;;;;;;0.77;0.60;;;9.70;99.90;;;;;;5052316;28;20472;-75
2022/09/28 04:57:37;;;;;;;1.27;0.60;;;9.60;99.90;;;;;;5051914;28;20192;-75
2022/09/28 05:00:04;;;;;;;3.63;0.50;;;9.60;99.90;;;;;;5052236;28;20505;-75
2022/09/28 05:02:29;;;;;;;1.13;0.70;;;9.50;99.90;;;;;;5052076;28;20260;-74
2022/09/28 05:04:57;;;;;;;1.93;0.60;;;9.50;99.90;;;;;;5051877;28;20423;-75
2022/09/28 05:07:24;;;;;;;2.63;1.10;;;9.40;99.90;;;;;;5051607;28;20183;-75
2022/09/28 05:09:49;;;;;;;1.33;0.60;;;9.50;99.90;;;;;;5051815;28;20423;-75
2022/09/28 05:12:15;;;;;;;0.67;0.43;;;9.50;99.90;;;;;;5050195;28;20420;-75
2022/09/28 05:14:40;;;;;;;1.27;0.60;;;9.50;99.90;;;;;;5051358;28;20207;-76
2022/09/28 05:17:06;;;;;;;0.97;0.50;;;9.60;99.90;;;;;;5051237;28;20218;-75
2022/09/28 05:19:33;;;;;;;2.10;0.60;;;9.70;99.90;;;;;;5050037;28;20243;-75
2022/09/28 05:22:02;;;;;;;1.83;0.60;;;9.70;99.90;;;;;;5049880;28;21001;-76
2022/09/28 05:24:28;;;;;;;3.30;0.93;;;9.70;99.90;;;;;;5032462;28;20459;-75
2022/09/28 05:26:54;;;;;;;2.93;0.73;;;9.70;99.90;;;;;;5050939;28;20444;-75
2022/09/28 05:29:19;;;;;;;8.23;1.27;;;9.70;99.90;;;;;;5049406;28;20497;-74
2022/09/28 05:31:45;;;;;;;1.20;0.90;;;9.70;99.90;;;;;;5051063;28;20220;-76
2022/09/28 05:34:11;;;;;;;1.23;1.13;;;9.60;99.90;;;;;;5050887;28;20270;-76
2022/09/28 05:36:38;;;;;;;2.37;1.83;;;9.60;99.90;;;;;;5050948;28;20220;-75
2022/09/28 05:39:03;;;;;;;1.63;1.10;;;9.60;99.90;;;;;;5050831;28;20185;-75
2022/09/28 05:41:29;;;;;;;2.37;1.10;;;9.50;99.90;;;;;;5050448;28;20937;-75
2022/09/28 05:43:55;;;;;;;1.50;0.90;;;9.30;99.90;;;;;;5049440;28;20223;-75
2022/09/28 05:46:22;;;;;;;2.10;0.80;;;9.30;99.90;;;;;;5050653;28;20683;-75
2022/09/28 05:48:48;;;;;;;3.70;0.70;;;9.30;99.90;;;;;;5050500;28;20419;-75
2022/09/28 05:51:14;;;;;;;3.03;0.97;;;9.20;99.90;;;;;;5050541;28;20423;-75
2022/09/28 05:53:40;;;;;;;5.37;0.73;;;9.10;99.90;;;;;;5050513;28;20471;-74
2022/09/28 05:56:05;;;;;;;1.77;0.70;;;9.10;99.90;;;;;;5050330;28;20530;-74
2022/09/28 05:58:31;;;;;;;2.60;0.80;;;9.10;99.90;;;;;;5032852;28;20184;-75
2022/09/28 06:00:57;;;;;;;5.63;0.70;;;9.10;99.90;;;;;;5050932;28;20279;-74
2022/09/28 06:03:23;;;;;;;4.03;0.90;;;9.10;99.90;;;;;;5050596;28;20204;-75
2022/09/28 06:05:49;;;;;;;3.53;1.27;;;9.00;99.90;;;;;;5050460;28;20465;-75
2022/09/28 06:08:15;;;;;;;5.90;1.13;;;9.10;99.90;;;;;;5050566;28;21154;-76
2022/09/28 06:10:40;;;;;;;1.57;1.20;;;9.00;99.90;;;;;;5049171;28;20291;-75
2022/09/28 06:13:07;;;;;;;2.03;1.30;;;9.00;99.90;;;;;;5049135;28;20222;-75
2022/09/28 06:15:35;;;;;;;12.13;1.80;;;9.00;99.90;;;;;;5050480;28;20981;-75
2022/09/28 06:18:03;;;;;;;3.23;1.30;;;9.00;99.90;;;;;;5054625;28;20421;-75
2022/09/28 06:20:32;;;;;;;4.63;1.40;;;9.00;99.90;;;;;;5068277;28;20416;-75
2022/09/28 06:22:58;;;;;;;2.20;1.80;;;9.00;99.90;;;;;;5051394;28;20942;-74
2022/09/28 06:25:26;;;;;;;2.60;1.70;;;9.00;99.90;;;;;;5052839;28;20415;-75
2022/09/28 06:28:11;;;;;;;2.60;1.20;;;9.00;99.90;;;;;;5052408;28;20178;-74
2022/09/28 06:30:37;;;;;;;3.63;1.10;;;9.00;99.90;;;;;;5051631;28;20824;-74
2022/09/28 06:33:04;;;;;;;2.57;1.30;;;9.00;99.90;;;;;;5050988;28;20483;-75
2022/09/28 06:35:31;;;;;;;4.20;1.47;;;9.10;99.90;;;;;;5050702;28;20466;-75
2022/09/28 06:37:57;;;;;;;2.30;1.17;;;9.00;99.90;;;;;;5050585;28;20419;-74
2022/09/28 06:40:24;;;;;;;4.33;1.70;;;9.10;99.90;;;;;;5050312;28;20420;-74
2022/09/28 06:43:09;;;;;;;9.80;4.00;;;9.10;99.90;;;;;;5049954;28;20436;-74
2022/09/28 06:45:36;;;;;;;7.50;3.10;;;9.10;99.90;;;;;;5050169;28;20513;-74
2022/09/28 06:48:03;;;;;;;8.47;2.43;;;9.10;99.90;;;;;;5050260;28;20423;-74
2022/09/28 06:50:31;;;;;;;4.70;2.50;;;9.00;99.90;;;;;;5050017;28;20454;-74
2022/09/28 06:52:58;;;;;;;4.43;2.00;;;8.90;99.90;;;;;;5050063;28;20435;-74
2022/09/28 06:55:24;;;;;;;3.80;2.40;;;8.90;99.90;;;;;;5049742;28;20470;-75
2022/09/28 06:58:01;;;;;;;13.67;7.20;;;8.90;99.90;;;;;;5048548;28;20417;-75
2022/09/28 07:00:28;;;;;;;3.07;1.87;;;8.90;99.90;;;;;;5049752;28;20476;-73
2022/09/28 07:02:54;;;;;;;10.40;2.23;;;9.00;99.90;;;;;;5048225;28;21010;-75
2022/09/28 07:05:25;;;;;;;3.80;2.00;;;8.90;99.90;;;;;;5047762;28;20522;-75
2022/09/28 07:07:53;;;;;;;9.03;4.73;;;8.80;99.90;;;;;;5048005;28;20179;-74
2022/09/28 07:10:21;;;;;;;5.20;1.90;;;9.00;99.90;;;;;;5047618;28;20938;-75
2022/09/28 07:12:48;;;;;;;5.23;1.50;;;9.00;99.90;;;;;;5049419;28;20767;-74
2022/09/28 07:15:13;;;;;;;2.70;1.33;;;9.00;99.90;;;;;;5048979;28;20498;-74
2022/09/28 07:17:39;;;;;;;1.47;1.20;;;9.00;99.90;;;;;;5048855;28;20467;-74
2022/09/28 07:20:05;;;;;;;1.30;1.13;;;9.00;99.90;;;;;;5049054;28;20176;-75
2022/09/28 07:22:30;;;;;;;4.90;1.30;;;9.10;99.90;;;;;;5047487;28;20186;-75
2022/09/28 07:24:56;;;;;;;2.97;1.17;;;9.00;99.90;;;;;;5048780;28;20418;-75
2022/09/28 07:27:22;;;;;;;2.13;1.00;;;9.10;99.90;;;;;;5047615;28;20180;-75
2022/09/28 07:29:47;;;;;;;1.90;1.07;;;9.10;99.90;;;;;;5048857;28;20418;-75
2022/09/28 07:32:13;;;;;;;1.30;1.00;;;9.20;99.90;;;;;;5047547;28;20183;-75
2022/09/28 07:34:42;;;;;;;2.20;1.47;;;9.30;99.90;;;;;;5048631;28;20211;-75
2022/09/28 07:37:10;;;;;;;1.27;0.93;;;9.40;99.90;;;;;;5030997;28;20214;-75
2022/09/28 07:41:10;;;;;;;2.60;0.90;;;9.50;99.90;;;;;;5046971;28;20426;-75
2022/09/28 07:42:23;;;;;;;2.17;0.90;;;9.70;99.90;;;;;;5048360;28;20428;-75
2022/09/28 07:44:49;;;;;;;2.40;0.90;;;9.70;99.90;;;;;;5048558;28;20420;-75
2022/09/28 07:47:17;;;;;;;2.73;0.90;;;9.80;99.90;;;;;;5048917;28;20420;-75
2022/09/28 07:49:43;;;;;;;2.73;0.70;;;9.80;99.90;;;;;;5035143;28;20415;-75
2022/09/28 07:52:09;;;;;;;1.77;0.90;;;9.90;99.90;;;;;;5051024;28;20432;-75
2022/09/28 07:54:36;;;;;;;1.80;0.80;;;9.80;99.90;;;;;;5052450;28;20226;-75
2022/09/28 07:57:02;;;;;;;2.03;0.83;;;9.80;99.90;;;;;;5052139;28;20564;-75
2022/09/28 07:59:28;;;;;;;1.90;0.87;;;9.80;99.90;;;;;;5050906;28;20509;-75
2022/09/28 08:01:53;;;;;;;1.60;0.63;;;9.80;99.90;;;;;;5050886;28;20415;-75
2022/09/28 08:04:19;;;;;;;1.63;1.03;;;9.80;99.90;;;;;;5050849;28;20257;-75
2022/09/28 08:06:44;;;;;;;3.67;1.27;;;9.80;99.90;;;;;;5034617;28;20595;-74
2022/09/28 08:09:10;;;;;;;1.17;0.97;;;9.90;99.90;;;;;;5052355;28;20468;-74
2022/09/28 08:11:36;;;;;;;4.60;1.10;;;9.70;99.90;;;;;;5052611;28;20188;-74
2022/09/28 08:14:01;;;;;;;4.20;1.97;;;9.70;99.90;;;;;;5052173;28;20217;-75
2022/09/28 08:16:27;;;;;;;3.97;1.80;;;9.70;99.90;;;;;;5052061;28;20214;-74
2022/09/28 08:18:53;;;;;;;5.73;1.60;;;9.70;99.90;;;;;;5052166;28;20178;-76
2022/09/28 08:24:04;;;;;;;4.70;1.90;;;9.60;99.90;;;;;;5052255;28;20213;-75
2022/09/28 08:26:30;;;;;;;2.33;1.43;;;9.50;99.90;;;;;;5034132;28;20423;-74
2022/09/28 08:28:56;;;;;;;4.20;1.57;;;9.50;99.90;;;;;;5050619;28;20238;-75
2022/09/28 08:31:21;;;;;;;2.00;1.10;;;9.50;99.90;;;;;;5052103;28;20193;-75
2022/09/28 08:33:51;;;;;;;1.80;0.80;;;9.60;99.90;;;;;;5051934;28;20212;-75
2022/09/28 08:36:17;;;;;;;4.83;0.80;;;9.50;99.90;;;;;;5051974;28;20307;-75
2022/09/28 08:38:42;;;;;;;1.20;0.90;;;9.50;99.90;;;;;;5052038;28;20611;-76
2022/09/28 08:41:31;;;;;;;1.07;0.97;;;9.50;99.90;;;;;;5051854;28;20191;-74
2022/09/28 08:44:01;;;;;;;3.37;1.20;;;9.40;99.90;;;;;;5051675;28;20226;-75
2022/09/28 08:46:36;;;;;;;1.70;0.80;;;9.50;99.90;;;;;;5052064;28;21297;-75
2022/09/28 08:49:17;;;;;;;1.57;1.00;;;9.50;99.90;;;;;;5051559;28;20440;-75
2022/09/28 08:51:56;;;;;;;1.20;1.00;;;9.50;99.90;;;;;;5051203;28;20550;-75
2022/09/28 08:54:45;;;;;;;1.57;1.30;;;9.60;99.90;;;;;;5052601;28;20449;-75
2022/09/28 08:57:10;;;;;;;2.30;1.33;;;9.60;99.90;;;;;;5051323;28;20979;-75
2022/09/28 08:59:57;;;;;;;3.40;1.10;;;9.70;99.90;;;;;;5051420;28;20421;-75
2022/09/28 09:02:35;;;;;;;2.30;1.43;;;9.70;99.90;;;;;;5051399;28;20310;-75
2022/09/28 09:05:14;;;;;;;3.40;1.30;;;9.80;99.90;;;;;;5051329;28;20951;-75
2022/09/28 09:08:00;;;;;;;2.77;1.20;;;9.90;99.90;;;;;;5051575;28;20422;-76
2022/09/28 09:10:45;;;;;;;8.43;1.50;;;9.90;99.90;;;;;;5051258;28;20467;-75
2022/09/28 09:13:50;;;;;;;3.80;1.30;;;10.00;99.90;;;;;;5051144;28;20426;-75
2022/09/28 09:16:38;;;;;;;3.30;1.20;;;10.10;99.90;;;;;;5050884;28;20473;-75
2022/09/28 09:19:16;;;;;;;1.33;1.23;;;10.20;99.90;;;;;;5051413;28;20413;-74
2022/09/28 09:21:54;;;;;;;3.17;1.93;;;10.20;99.90;;;;;;5049527;28;20420;-75
2022/09/28 09:24:26;;;;;;;2.70;1.80;;;10.30;99.90;;;;;;5051018;28;20502;-75
2022/09/28 09:27:19;;;;;;;2.90;1.93;;;10.40;99.90;;;;;;5049707;28;21283;-75
2022/09/28 09:30:03;;;;;;;3.50;1.60;;;10.30;99.90;;;;;;5051044;28;20498;-75
2022/09/28 09:32:55;;;;;;;2.17;1.17;;;10.30;99.90;;;;;;5049233;28;20419;-75
2022/09/28 09:35:49;;;;;;;1.90;1.33;;;10.40;99.90;;;;;;5049618;28;20512;-76
2022/09/28 09:38:23;;;;;;;3.80;1.87;;;10.40;99.90;;;;;;5050999;28;20412;-75
2022/09/28 09:41:09;;;;;;;3.20;1.77;;;10.50;99.90;;;;;;5050926;28;20411;-74
2022/09/28 09:43:58;;;;;;;2.83;2.07;;;10.60;99.90;;;;;;5051241;28;20491;-75
2022/09/28 09:46:44;;;;;;;3.50;2.10;;;10.80;99.90;;;;;;5051434;28;20439;-76
2022/09/28 09:49:25;;;;;;;2.73;1.60;;;10.90;99.90;;;;;;5049700;28;20430;-75
2022/09/28 09:52:00;;;;;;;4.20;1.53;;;10.60;99.90;;;;;;5051346;28;20423;-75
2022/09/28 09:54:33;;;;;;;4.77;1.53;;;10.60;99.90;;;;;;5051162;28;20444;-74
2022/09/28 09:57:09;;;;;;;2.70;1.30;;;10.60;99.90;;;;;;5051007;28;20511;-74
2022/09/28 09:59:38;;;;;;;5.20;1.50;;;10.70;99.90;;;;;;5049723;28;20476;-75
2022/09/28 10:02:23;;;;;;;2.70;1.77;;;10.80;99.90;;;;;;5049605;28;21045;-74
2022/09/28 10:04:53;;;;;;;2.97;1.60;;;10.90;99.90;;;;;;5050997;28;20423;-75
2022/09/28 10:07:52;;;;;;;10.00;1.43;;;10.90;99.90;;;;;;5050964;28;20413;-75
2022/09/28 10:10:29;;;;;;;2.10;1.60;;;10.90;99.90;;;;;;5047044;28;20422;-75
2022/09/28 10:12:55;;;;;;;3.60;2.20;;;10.90;99.90;;;;;;5050182;28;20440;-76
2022/09/28 10:15:33;;;;;;;7.03;1.90;;;11.00;99.90;;;;;;5048884;28;21004;-75
2022/09/28 10:18:05;;;;;;;2.27;1.30;;;11.10;99.90;;;;;;5050454;28;20912;-75
2022/09/28 10:20:34;;;;;;;2.67;1.80;;;11.20;99.90;;;;;;5050286;28;20412;-75
2022/09/28 10:23:03;;;;;;;3.13;1.77;;;11.20;99.90;;;;;;5050124;28;20423;-75
2022/09/28 10:25:32;;;;;;;2.20;1.47;;;11.20;99.90;;;;;;5050303;28;21022;-76
2022/09/28 10:28:00;;;;;;;2.57;1.70;;;11.30;99.90;;;;;;5049969;28;20913;-75
2022/09/28 10:30:25;;;;;;;8.43;1.67;;;11.40;99.90;;;;;;5050099;28;20431;-75
2022/09/28 10:32:54;;;;;;;2.00;1.40;;;11.50;99.90;;;;;;5049847;28;20815;-75
2022/09/28 10:35:24;;;;;;;6.37;1.67;;;11.50;99.90;;;;;;5049889;28;20240;-75
2022/09/28 10:38:00;;;;;;;3.10;2.30;;;11.50;99.90;;;;;;5049650;28;20443;-75
2022/09/28 10:40:45;;;;;;;3.53;1.63;;;11.50;99.90;;;;;;5048528;28;20941;-75
2022/09/28 10:43:29;;;;;;;7.60;1.80;;;11.60;99.90;;;;;;5049527;28;21000;-76
2022/09/28 10:46:08;;;;;;;4.63;1.57;;;11.60;99.90;;;;;;5049708;28;20445;-74
2022/09/28 10:48:51;;;;;;;5.13;1.63;;;11.60;99.90;;;;;;5049721;28;20423;-75
2022/09/28 10:51:17;;;;;;;4.23;1.50;;;11.80;99.90;;;;;;5048321;28;20431;-75
2022/09/28 10:54:00;;;;;;;6.10;1.93;;;11.90;99.90;;;;;;5048257;28;20918;-75
2022/09/28 10:56:35;;;;;;;10.10;1.80;;;12.00;99.90;;;;;;5047812;28;20487;-76
2022/09/28 10:59:21;;;;;;;6.20;1.90;;;12.10;99.90;;;;;;5047866;28;20458;-76
2022/09/28 11:01:46;;;;;;;4.63;1.53;;;12.10;99.90;;;;;;5049831;28;20421;-76
2022/09/28 11:04:21;;;;;;;3.07;1.37;;;12.20;99.90;;;;;;5048120;28;20532;-77
2022/09/28 11:06:46;;;;;;;4.97;1.93;;;12.10;99.90;;;;;;5049322;28;20185;-75
2022/09/28 11:09:28;;;;;;;5.27;2.87;;;12.10;99.90;;;;;;5051654;28;20433;-76
2022/09/28 11:11:56;;;;;;;7.27;3.00;;;12.00;99.90;;;;;;5051695;28;20771;-76
2022/09/28 11:14:39;;;;;;;7.50;3.53;;;12.10;99.90;;;;;;5050163;28;20453;-75
2022/09/28 11:17:29;;;;;;;3.87;2.20;;;12.10;99.90;;;;;;5051299;28;20551;-75
2022/09/28 11:19:57;;;;;;;2.80;1.57;;;12.20;99.90;;;;;;5050844;28;20413;-75
2022/09/28 11:22:32;;;;;;;4.77;1.83;;;12.20;99.90;;;;;;5050095;28;20422;-75
2022/09/28 11:25:16;;;;;;;2.73;1.53;;;12.20;99.90;;;;;;5055814;28;20452;-75
2022/09/28 11:27:56;;;;;;;6.00;1.53;;;12.10;99.90;;;;;;5050297;28;20453;-75
2022/09/28 11:30:32;;;;;;;9.47;2.03;;;12.20;99.90;;;;;;5050004;28;20436;-75
2022/09/28 11:33:09;;;;;;;5.50;1.40;;;12.20;99.90;;;;;;5049555;28;20493;-75
2022/09/28 11:36:03;;;;;;;2.17;1.40;;;12.20;99.90;;;;;;5049423;28;20473;-75
2022/09/28 11:38:34;;;;;;;5.77;1.70;;;12.10;99.90;;;;;;5045461;28;20784;-75
2022/09/28 11:41:17;;;;;;;3.37;1.67;;;12.10;99.90;;;;;;5049602;28;20409;-74
2022/09/28 11:44:22;;;;;;;2.63;1.47;;;12.10;99.90;;;;;;5049608;28;20832;-75
2022/09/28 11:47:14;;;;;;;3.00;1.10;;;12.20;99.90;;;;;;5049343;28;20435;-74
2022/09/28 11:49:46;;;;;;;3.13;1.07;;;12.10;99.90;;;;;;5049879;28;20963;-75
2022/09/28 11:52:40;;;;;;;2.73;1.10;;;12.20;99.90;;;;;;5049442;28;20792;-75
2022/09/28 11:55:23;;;;;;;1.87;0.73;;;12.20;99.90;;;;;;5047831;28;20433;-75
2022/09/28 11:57:58;;;;;;;5.03;1.20;;;12.30;99.90;;;;;;5047944;28;20525;-75
2022/09/28 12:00:26;;;;;;;1.80;1.03;;;12.20;99.90;;;;;;5049497;28;21259;-75
2022/09/28 12:03:21;;;;;;;5.30;1.00;;;12.20;99.90;;;;;;5048987;28;21344;-75
2022/09/28 12:06:01;;;;;;;2.43;1.10;;;12.20;99.90;;;;;;5049258;28;20429;-75
2022/09/28 12:08:33;;;;;;;1.00;0.80;;;12.20;99.90;;;;;;5048965;28;20428;-75
2022/09/28 12:11:11;;;;;;;6.77;1.27;;;12.20;99.90;;;;;;5048851;28;20874;-75
2022/09/28 12:13:43;;;;;;;2.50;1.00;;;12.30;99.90;;;;;;5048586;28;20524;-75
2022/09/28 12:16:31;;;;;;;2.47;0.70;;;12.30;99.90;;;;;;5047155;28;20488;-75
2022/09/28 12:18:59;;;;;;;5.30;1.27;;;12.40;99.90;;;;;;5048337;28;20467;-75
2022/09/28 12:21:47;;;;;;;11.47;0.93;;;12.40;99.90;;;;;;5048635;28;20425;-75
2022/09/28 12:24:16;;;;;;;3.37;0.80;;;12.30;99.90;;;;;;5047146;28;20559;-75
2022/09/28 12:27:19;;;;;;;8.13;1.20;;;12.30;99.90;;;;;;5048281;28;20468;-75
2022/09/28 12:29:49;;;;;;;4.53;1.23;;;12.40;99.90;;;;;;5046817;28;20442;-75
2022/09/28 12:32:38;;;;;;;1.70;0.87;;;12.40;99.90;;;;;;5048212;28;20428;-75
2022/09/28 12:35:13;;;;;;;1.67;0.80;;;12.50;99.90;;;;;;5050433;28;20774;-75
2022/09/28 12:37:48;;;;;;;1.97;1.20;;;12.60;99.90;;;;;;5051844;28;20429;-75
2022/09/28 12:40:44;;;;;;;3.90;1.00;;;12.60;99.90;;;;;;5052123;28;20421;-75
2022/09/28 12:43:34;;;;;;;7.60;1.23;;;12.50;99.90;;;;;;5052392;28;20542;-75
2022/09/28 12:46:25;;;;;;;2.27;0.90;;;12.50;99.90;;;;;;5052052;28;20852;-75
2022/09/28 12:49:16;;;;;;;2.47;0.70;;;12.50;99.90;;;;;;5051907;28;20479;-75
2022/09/28 12:52:28;;;;;;;5.07;1.23;;;12.40;99.90;;;;;;5051658;28;20456;-75
2022/09/28 12:55:06;;;;;;;9.37;1.10;;;12.50;99.90;;;;;;5042231;28;20934;-75
2022/09/28 12:57:46;;;;;;;4.07;0.83;;;12.50;99.90;;;;;;5051488;28;20451;-75
2022/09/28 13:00:24;;;;;;;3.83;0.80;;;12.50;99.90;;;;;;5051468;28;20462;-75
2022/09/28 13:03:08;;;;;;;3.20;1.00;;;12.40;99.90;;;;;;5051534;28;20537;-75
2022/09/28 13:06:11;;;;;;;1.80;1.10;;;12.40;99.90;;;;;;5049780;28;20502;-75
2022/09/28 13:09:04;;;;;;;6.07;1.40;;;12.40;99.90;;;;;;5049674;28;20433;-75
2022/09/28 13:11:53;;;;;;;4.07;1.10;;;12.50;99.90;;;;;;5051286;28;20425;-75
2022/09/28 13:14:31;;;;;;;4.20;0.80;;;12.50;99.90;;;;;;5051257;28;20782;-75
2022/09/28 13:17:14;;;;;;;1.77;0.70;;;12.50;99.90;;;;;;5051119;28;20461;-75
2022/09/28 13:19:50;;;;;;;1.80;0.97;;;12.40;99.90;;;;;;5051076;28;20417;-75
2022/09/28 13:22:21;;;;;;;4.37;1.10;;;12.40;99.90;;;;;;5051034;28;20424;-75
2022/09/28 13:24:49;;;;;;;7.27;1.67;;;12.40;99.90;;;;;;5050835;28;20839;-75
2022/09/28 13:27:21;;;;;;;5.43;1.17;;;12.40;99.90;;;;;;5050699;28;20437;-75
2022/09/28 13:29:49;;;;;;;2.50;1.00;;;12.40;99.90;;;;;;5051025;28;20408;-75